Str Lee A Tregurtha — WUR8857 — position and weather

sailwx.info

Track history (hours):
 
Tides and Currents Weather Stations Pressure Air Temp Water Temp Dewpoint Dewpoint Depression Visibility Wind Speed Wind Dir Waves Ship Positions

Str Lee A Tregurtha

Owner: THE INTERLAKE STEAMSHIP COMPANY, Middleburg Heights, OH. More information available from US FCC via Universal Licensing System and Coast Guard Vessel Documentation Center.

Last reported at 2018-Jan-10 16:00 UTC. Time now 2018-Feb-25 19:41 UTC.
Position N 46°42' W 092°06'.
Warning: this ship's position is 46 days out of date.

Length 252 m; draft 8.4 m.

Type: Cargo ship. MMSI: 366904950.

Wind from 210 at 12 knots

Barometer 1001.0 mb
Air temperature 2.3 ° C
Water temperature 0.5 ° C

Date/timePositionNaut miles runAvg speedWind from/ knotsBaromVisibWave heightAir tempDewpointWater temp
2018-Jan-10 16:00N 46°42' W 092°06'0 0.0 210 / 121001.0 2.3 0.5
2018-Jan-10 15:00N 46°42' W 092°06'2 7.7 200 / 91001.0 2.2 0.3
2018-Jan-10 14:42N 46°44' W 092°05'0 0.0
2018-Jan-10 14:30N 46°44' W 092°05'0 0.0
2018-Jan-10 14:00N 46°44' W 092°05'2144.5
2018-Jan-10 14:00N 46°42' W 092°06'2 4.7 200 / 111000.7 2.2 0.3
2018-Jan-10 13:30N 46°44' W 092°05'0 0.0
2018-Jan-10 13:00N 46°44' W 092°05'2143.4
2018-Jan-10 13:00N 46°42' W 092°06'2 4.9 210 / 101001.4 2.2 0.5
2018-Jan-10 12:30N 46°44' W 092°06'0 0.9
2018-Jan-10 12:00N 46°45' W 092°06'3169.5
2018-Jan-10 12:00N 46°42' W 092°06'3 6.8 200 / 61001.4 2.2 0.3
2018-Jan-10 11:30N 46°45' W 092°06'2 4.0
2018-Jan-10 11:00N 46°47' W 092°04'187.4
2018-Jan-10 11:00N 46°48' W 092°06'611.6 200 / 91001.4 1.9 0.2
2018-Jan-10 10:30N 46°49' W 091°58'816.3
2018-Jan-10 10:00N 46°54' W 091°48'3536.2 190 / 151002.4 2.9 1.3
2018-Jan-10 09:59N 46°51' W 091°50'510.8
2018-Jan-10 09:30N 46°53' W 091°43'510.3
2018-Jan-10 09:00N 46°55' W 091°36'161.4
2018-Jan-10 09:00N 46°54' W 091°36'1010.2 200 / 271004.4 3.4 2.4
2018-Jan-10 08:00N 47°00' W 091°24'1212.3 220 / 111005.4 3.8 2.3
2018-Jan-10 07:00N 47°00' W 091°06'1010.1 120 / 101006.4 2.1 1.6
2018-Jan-10 06:00N 47°06' W 090°54'1413.6 140 / 111008.5 1.0 0.6
2018-Jan-10 05:00N 47°12' W 090°36'8 8.2 170 / 181009.8 2.3 1.2
2018-Jan-10 04:00N 47°12' W 090°24'1212.2 140 / 161011.5 2.0 2.1
2018-Jan-10 03:00N 47°12' W 090°06'1010.1 160 / 171012.9 2.1 2.9
2018-Jan-10 02:00N 47°18' W 089°54'1212.2 140 / 141014.6 1.8 2.7
2018-Jan-10 01:00N 47°18' W 089°36'2110.6 140 / 181015.6 0.9 3.0
2018-Jan-09 23:00N 47°24' W 089°06'8 8.1 110 / 131017.910.8 -0.5 3.1
2018-Jan-09 22:00N 47°24' W 088°54'1413.6 130 / 141019.0 -1.3 2.9
2018-Jan-09 21:00N 47°30' W 088°36'1212.2 150 / 141020.0 -2.5 2.9
2018-Jan-09 20:00N 47°30' W 088°18'8 8.1 140 / 101020.3 -2.9 2.9
2018-Jan-09 19:00N 47°30' W 088°06'1212.2 140 / 101021.7 -3.7 2.8
2018-Jan-09 18:00N 47°30' W 087°48'8 8.1 190 / 141022.0 -4.4 1.9
2018-Jan-09 17:00N 47°30' W 087°36'1717.3 210 / 121023.4 -4.5 1.6
2018-Jan-09 16:00N 47°24' W 087°12'1413.6 200 / 31023.4 -4.2 3.6
2018-Jan-09 15:00N 47°18' W 086°54'7312.2 230 / 31023.7 -4.5 3.6
2018-Jan-09 09:00N 46°54' W 085°12'1010.2 330 / 261017.6 -3.2 1.1
2018-Jan-09 08:00N 46°48' W 085°00'7 7.3 340 / 211016.9 -3.2 0.1
2018-Jan-09 07:00N 46°42' W 084°54'4 4.1 290 / 221015.9 -3.0 0.2
2018-Jan-09 06:00N 46°42' W 084°48'6 6.0 310 / 251014.6 -2.8 0.3
2018-Jan-09 05:00N 46°36' W 084°48'4 4.1 300 / 291013.9 -2.7 0.2
2018-Jan-09 04:00N 46°36' W 084°42'7 7.3 300 / 261012.9 -2.8 0.1
2018-Jan-09 03:00N 46°30' W 084°36'8 8.3 300 / 291011.2 -3.1 0.1
2018-Jan-09 02:00N 46°30' W 084°24'0 0.0 300 / 231010.8 -3.0 0.1
2018-Jan-09 01:00N 46°30' W 084°24'4 4.1 300 / 171010.5 -3.1 0.1
2018-Jan-09 00:00N 46°30' W 084°18'0 0.0 300 / 211009.3 -2.4 0.1
2018-Jan-08 23:00N 46°30' W 084°18'6 6.0 260 / 121007.9 -1.5 0.1
2018-Jan-08 22:00N 46°24' W 084°18'4 4.1 260 / 101007.2 -1.3 0.1
2018-Jan-08 21:00N 46°24' W 084°12'6 6.0 250 / 171006.2 -1.1 0.1
2018-Jan-08 20:00N 46°18' W 084°12'4 4.1 240 / 161004.9 -1.4 0.1
2018-Jan-08 19:00N 46°18' W 084°06'0 0.0 250 / 141004.9 -1.3 0.1
2018-Jan-08 18:00N 46°18' W 084°06'6 6.0 240 / 91004.9 -1.7 0.1
2018-Jan-08 17:00N 46°12' W 084°06'0 0.0 240 / 161005.2 -2.2 0.1
2018-Jan-08 16:00N 46°12' W 084°06'0 0.0 230 / 131005.9 -2.2 0.4
2018-Jan-08 15:00N 46°12' W 084°06'0 0.0 230 / 121005.5 -2.6 0.2
2018-Jan-08 14:00N 46°12' W 084°06'7 7.3 240 / 161005.2 -3.3 0.1
2018-Jan-08 13:00N 46°06' W 084°00'0 0.0 250 / 141005.2 -3.7 0.1
2018-Jan-08 12:00N 46°06' W 084°00'1312.7 270 / 131004.9 -3.5 0.2
2018-Jan-08 11:00N 45°54' W 083°54'1010.3 270 / 221004.5 -2.5 1.1
2018-Jan-08 10:00N 45°48' W 083°42'2211.0 300 / 221004.5 -1.8 2.7
2018-Jan-08 08:00N 45°30' W 083°24'1312.7 180 / 131006.6 -1.6 3.0
2018-Jan-08 07:00N 45°18' W 083°18'7 7.3 190 / 121007.6 -2.0 1.0
2018-Jan-08 06:00N 45°12' W 083°12'1312.7 200 / 161008.3 -1.4 0.6
2018-Jan-08 05:00N 45°00' W 083°06'1212.0 210 / 161009.6 -1.0 1.7
2018-Jan-08 04:00N 44°48' W 083°06'1312.7 210 / 171010.3 -1.4 1.6
2018-Jan-08 03:00N 44°36' W 083°00'1212.0 210 / 211011.0 -2.0 0.5
2018-Jan-08 02:00N 44°24' W 083°00'7 7.4 220 / 291011.3 -1.8 1.3
2018-Jan-08 01:00N 44°18' W 082°54'1010.5 220 / 301012.0 -2.1 0.7
2018-Jan-08 00:00N 44°12' W 082°42'1312.8 210 / 251013.3 -2.6 1.2
2018-Jan-07 23:00N 44°00' W 082°36'1312.8 190 / 161014.7 -2.7 1.4
2018-Jan-07 22:00N 43°48' W 082°30'1212.0 190 / 181015.4 -5.0 1.2
2018-Jan-07 21:00N 43°36' W 082°30'6 6.0 190 / 181016.0 -5.8 0.7
2018-Jan-07 20:00N 43°30' W 082°30'1312.8 190 / 181017.4 -7.0 0.1
2018-Jan-07 19:00N 43°18' W 082°24'1212.0 200 / 221019.1 -8.1 0.1
2018-Jan-07 18:00N 43°06' W 082°24'6 6.0 190 / 261021.1 -8.7 0.1
2018-Jan-07 17:00N 43°00' W 082°24'7 7.4 190 / 241023.5 -9.5 0.1
2018-Jan-07 16:00N 42°54' W 082°30'1212.0 190 / 201025.9 -9.3 0.1
2018-Jan-07 15:00N 42°42' W 082°30'6 6.0 180 / 181027.6 -10.6 0.2
2018-Jan-07 14:00N 42°36' W 082°30'0 0.0 200 / 121028.9 -11.4 0.1
2018-Jan-07 13:00N 42°36' W 082°30'0 0.0 190 / 141028.9 -12.1 0.2
2018-Jan-07 12:00N 42°36' W 082°30'0 0.0 190 / 111030.3 -12.6 0.1
2018-Jan-07 11:00N 42°36' W 082°30'0 0.0 190 / 121030.9 -13.1 0.1
2018-Jan-07 10:00N 42°36' W 082°30'0 0.0 190 / 61030.9 -15.1 0.1
2018-Jan-07 09:00N 42°36' W 082°30'0 0.0 200 / 61031.6 -16.4 0.1
2018-Jan-07 08:00N 42°36' W 082°30'0 0.0 150 / 51032.0 -17.7 0.2
2018-Jan-07 07:00N 42°36' W 082°30'0 0.0 140 / 41032.3 -18.1 0.1
2018-Jan-07 06:00N 42°36' W 082°30'0 0.0 150 / 21033.3 -18.5 0.1
2018-Jan-07 05:00N 42°36' W 082°30'0 0.0 140 / 21033.7 -18.9 0.1
2018-Jan-07 04:00N 42°36' W 082°30'0 0.0 210 / 11034.3 -18.5 0.1
2018-Jan-07 03:00N 42°36' W 082°30'0 0.0 140 / 21034.7 -18.6 0.1
2018-Jan-07 02:00N 42°36' W 082°30'0 0.0 310 / 21034.7 -16.9 0.1
2018-Jan-07 01:00N 42°36' W 082°30'0 0.0 320 / 21035.0 -16.5 0.1
2018-Jan-07 00:00N 42°36' W 082°30'0 0.0 320 / 21035.0 -15.8 0.1
2018-Jan-06 23:00N 42°36' W 082°30'4 4.4 280 / 21035.0 -15.3 0.1
2018-Jan-06 22:00N 42°36' W 082°36'0 0.0 300 / 91034.8 -14.7 0.3
2018-Jan-06 21:00N 42°36' W 082°36'6 6.0 290 / 61034.5 -13.0 0.8
2018-Jan-06 20:00N 42°30' W 082°36'4 4.4 300 / 121033.8 -12.4 0.1
2018-Jan-06 19:00N 42°30' W 082°42'7 7.5 280 / 141033.8 -12.8 0.2
2018-Jan-06 18:00N 42°24' W 082°48'1110.7 320 / 181033.5 -13.6 0.3
2018-Jan-06 17:00N 42°18' W 083°00'4 4.4 330 / 111034.1 -14.3 0.2
2018-Jan-06 16:00N 42°18' W 083°06'0 0.0 340 / 71034.1 -13.2 0.2
2018-Jan-06 15:00N 42°18' W 083°06'0 0.0 310 / 91033.5 -15.1 0.1
2018-Jan-06 14:00N 42°18' W 083°06'0 0.0 280 / 71032.8 -16.1 1.3
2018-Jan-06 13:00N 42°18' W 083°06'4 4.4 270 / 41032.4 -16.5 7.8
2018-Jan-06 12:00N 42°18' W 083°12'0 0.0 290 / 61031.8 -16.9 10.4
2018-Jan-06 11:00N 42°18' W 083°12'0 0.0 300 / 61031.1 -16.5 10.3
2018-Jan-06 10:00N 42°18' W 083°12'0 0.0 320 / 31030.4 -16.6 10.4
2018-Jan-06 09:00N 42°18' W 083°12'0 0.0 300 / 71030.1 -16.3 10.5
2018-Jan-06 08:00N 42°18' W 083°12'0 0.0 290 / 81030.4 -16.4 10.6
2018-Jan-06 07:00N 42°18' W 083°12'0 0.0 280 / 71029.4 -16.1 10.5
2018-Jan-06 06:00N 42°18' W 083°12'0 0.0 280 / 31029.1 -15.7 10.5
2018-Jan-06 05:00N 42°18' W 083°12'0 0.0 200 / 21029.1 -15.7 10.6
2018-Jan-06 04:00N 42°18' W 083°12'0 0.0 270 / 61028.7 -15.7 10.8
2018-Jan-06 03:00N 42°18' W 083°12'0 0.0 290 / 61028.4 -16.0 10.7
2018-Jan-06 02:00N 42°18' W 083°12'0 0.0 290 / 41028.4 -15.6 10.4
2018-Jan-06 01:00N 42°18' W 083°12'0 0.0 230 / 41028.0 -15.1 10.4
2018-Jan-06 00:00N 42°18' W 083°12'0 0.0 320 / 61027.7 -15.2 10.7
2018-Jan-05 23:00N 42°18' W 083°12'0 0.0 240 / 21027.4 -15.1 10.5
2018-Jan-05 22:00N 42°18' W 083°12'0 0.0 310 / 41027.0 -14.9 10.5
2018-Jan-05 21:00N 42°18' W 083°12'0 0.0 310 / 51026.4 -14.0 10.4
2018-Jan-05 20:00N 42°18' W 083°12'0 0.0 290 / 41025.7 -14.2 10.8
2018-Jan-05 19:00N 42°18' W 083°12'0 0.0 320 / 101025.3 -14.6 10.8
2018-Jan-05 18:00N 42°18' W 083°12'0 0.0 290 / 131025.0 -14.7 10.8
2018-Jan-05 17:00N 42°18' W 083°12'0 0.0 300 / 111025.3 -15.1 10.8
2018-Jan-05 16:00N 42°18' W 083°12'0 0.0 320 / 111025.3 -15.9 11.0
2018-Jan-05 15:00N 42°18' W 083°12'0 0.0 290 / 121024.7 -16.4 10.8
2018-Jan-05 14:00N 42°18' W 083°12'0 0.0 310 / 31024.0 -17.8 10.5
2018-Jan-05 13:00N 42°18' W 083°12'0 0.0 300 / 71023.6 -18.6 10.1
2018-Jan-05 12:00N 42°18' W 083°12'0 0.0 290 / 131023.3 -18.8 10.1
2018-Jan-05 11:00N 42°18' W 083°12'0 0.0 310 / 61022.6 -18.6 10.2
2018-Jan-05 10:00N 42°18' W 083°12'0 0.0 300 / 111022.3 -18.4 8.7
2018-Jan-05 09:00N 42°18' W 083°12'0 0.0 300 / 71022.3 -18.1 8.3
2018-Jan-05 08:00N 42°18' W 083°12'0 0.0 330 / 91021.9 -17.9 8.5
2018-Jan-05 07:00N 42°18' W 083°12'0 0.0 310 / 121021.3 -17.8 8.8
2018-Jan-05 06:00N 42°18' W 083°12'0 0.0 290 / 121020.9 -17.4 8.8
2018-Jan-05 05:00N 42°18' W 083°12'0 0.0 300 / 141021.3 -17.0 8.3
2018-Jan-05 04:00N 42°18' W 083°12'0 0.0 320 / 81021.6 -16.5 8.0
2018-Jan-05 03:00N 42°18' W 083°12'4 4.4 320 / 71021.6 -16.1 8.2
2018-Jan-05 02:00N 42°18' W 083°06'0 0.0 310 / 91021.6 -15.3 6.8
2018-Jan-05 01:00N 42°18' W 083°06'4 4.4 330 / 121021.3 -15.0 1.1
2018-Jan-05 00:00N 42°18' W 083°00'1110.7 300 / 61020.9 -14.3 0.1
2018-Jan-04 23:00N 42°24' W 082°48'7 7.5 320 / 211019.9 -14.4 0.3
2018-Jan-04 22:00N 42°30' W 082°42'0 0.0 320 / 211019.9 -14.3 0.2
2018-Jan-04 21:00N 42°30' W 082°42'0 0.0 320 / 241019.2 -14.2 0.2
2018-Jan-04 20:00N 42°30' W 082°42'0 0.0 330 / 251018.9 -14.2 0.4
2018-Jan-04 19:00N 42°30' W 082°42'0 0.0 320 / 231018.9 -14.2 0.3
2018-Jan-04 18:00N 42°30' W 082°42'4 4.4 320 / 221018.9 -14.2 0.1
2018-Jan-04 17:00N 42°30' W 082°36'7 7.5 350 / 221018.9 -14.5 0.1
2018-Jan-04 16:00N 42°36' W 082°30'1212.0 290 / 171019.1 -14.7 0.1
2018-Jan-04 15:00N 42°48' W 082°30'6 6.0 300 / 181018.8 -14.9 0.1
2018-Jan-04 14:00N 42°54' W 082°30'7 7.4 330 / 161019.1 -14.9 0.1
2018-Jan-04 13:00N 43°00' W 082°24'1212.0 320 / 141018.8 -14.8 0.1
2018-Jan-04 12:00N 43°12' W 082°24'1212.0 310 / 301018.1 -12.8 0.1
2018-Jan-04 11:00N 43°24' W 082°24'1212.0 310 / 331017.4 -12.2 0.2
2018-Jan-04 10:00N 43°36' W 082°24'1212.0 320 / 271017.4 -10.9 0.8
2018-Jan-04 09:00N 43°48' W 082°24'1514.8 320 / 261017.4 -10.0 2.5
2018-Jan-04 08:00N 44°00' W 082°36'1312.8 320 / 261017.4 -9.6 1.6
2018-Jan-04 07:00N 44°12' W 082°42'4314.3 300 / 221016.7 -9.8 2.7
2018-Jan-04 04:00N 44°54' W 082°54'1312.7 330 / 251015.7 -9.8 1.8
2018-Jan-04 03:00N 45°06' W 083°00'1514.7 330 / 281015.7 -10.0 2.5
2018-Jan-04 02:00N 45°18' W 083°12'1014.6 330 / 271015.4 -9.9 2.9
2018-Jan-04 01:18N 45°25' W 083°22'413.5
2018-Jan-04 01:00N 45°29' W 083°25'2114.9
2018-Jan-04 01:00N 45°30' W 083°24'612.8 340 / 301014.7 -10.3 3.7
2018-Jan-04 00:31N 45°34' W 083°31'713.3
2018-Jan-04 00:00N 45°39' W 083°36'3213.1
2018-Jan-04 00:00N 45°36' W 083°36'2713.5 320 / 251014.310.8 -10.6 3.6
2018-Jan-03 22:00N 46°00' W 083°54'7 7.3 320 / 241012.7 -11.1 0.3
2018-Jan-03 21:00N 46°06' W 084°00'1010.3 320 / 231011.6 -10.5 0.2
2018-Jan-03 20:00N 46°12' W 084°12'6 6.0 320 / 211010.6 -10.1 0.1
2018-Jan-03 19:00N 46°18' W 084°12'7 7.3 300 / 161009.3 -9.6 0.1
2018-Jan-03 18:00N 46°24' W 084°18'6 6.0 280 / 161009.3 -8.3 0.1
2018-Jan-03 17:00N 46°30' W 084°18'4 4.1 010 / 41009.3 -8.3 0.2
2018-Jan-03 16:00N 46°30' W 084°24'0 0.0 150 / 21009.5 -10.1 0.1
2018-Jan-03 15:00N 46°30' W 084°24'0 0.0 180 / 21009.5 -10.7 0.2
2018-Jan-03 14:00N 46°30' W 084°24'4 4.1 180 / 31009.1 -11.0 0.1
2018-Jan-03 13:00N 46°30' W 084°30'4 4.1 160 / 31009.5 -10.9 0.1
2018-Jan-03 12:00N 46°30' W 084°36'1010.2 230 / 141009.1 -9.7 0.3
2018-Jan-03 11:00N 46°36' W 084°48'1312.7 240 / 241008.5 -8.9 1.4
2018-Jan-03 10:00N 46°48' W 084°54'1212.3 230 / 191008.5 -9.5 0.2
2018-Jan-03 09:00N 46°48' W 085°12'1212.3 220 / 231008.5 -8.7 1.6
2018-Jan-03 08:00N 46°48' W 085°30'1212.3 230 / 181008.8 -7.6 3.3
2018-Jan-03 07:00N 46°48' W 085°48'1212.3 220 / 221008.8 -7.5 3.0
2018-Jan-03 06:00N 46°48' W 086°06'1413.7 260 / 191009.1 -6.6 2.7
2018-Jan-03 05:00N 46°42' W 086°24'8 8.2 270 / 241009.8 -6.4 3.0
2018-Jan-03 04:00N 46°42' W 086°36'1413.7 230 / 221010.5 -7.6 3.4
2018-Jan-03 03:00N 46°36' W 086°54'1212.4 240 / 241011.2 -7.5 2.5
2018-Jan-03 02:00N 46°36' W 087°12'8 8.2 240 / 161011.9 -8.5 1.7
2018-Jan-03 01:00N 46°36' W 087°24'0 0.0 250 / 21012.2 -8.3 0.4
2018-Jan-03 00:00N 46°36' W 087°24'0 0.0 230 / 51012.2 -8.1 0.4
2018-Jan-02 23:00N 46°36' W 087°24'0 0.0 230 / 41012.5 -8.0 0.4
2018-Jan-02 22:00N 46°36' W 087°24'0 0.0 240 / 21012.9 -8.2 0.4
2018-Jan-02 21:00N 46°36' W 087°24'0 0.0 200 / 51013.9 -8.3 0.5
2018-Jan-02 20:00N 46°36' W 087°24'0 0.0 240 / 41013.9 -7.6 0.5
2018-Jan-02 19:00N 46°36' W 087°24'0 0.0 250 / 41015.9 -7.6 0.5
2018-Jan-02 18:00N 46°36' W 087°24'0 0.0 220 / 21017.6 -8.4 0.5
2018-Jan-02 17:00N 46°36' W 087°24'0 0.0 240 / 61018.6 -9.7 0.5
2018-Jan-02 16:00N 46°36' W 087°24'0 0.0 200 / 61020.3 -10.8 0.5
2018-Jan-02 15:00N 46°36' W 087°24'0 0.0 240 / 71021.3 -12.2 0.6
2018-Jan-02 14:00N 46°36' W 087°24'0 0.0 290 / 81021.7 -11.9 0.6
2018-Jan-02 13:00N 46°36' W 087°24'0 0.0 260 / 51022.0 -11.5 0.5
2018-Jan-02 12:00N 46°36' W 087°24'0 0.0 310 / 51023.4 -12.3 0.5
2018-Jan-02 11:00N 46°36' W 087°24'0 0.0 290 / 81024.4 -12.5 0.6
2018-Jan-02 10:00N 46°36' W 087°24'0 0.0 300 / 61025.4 -12.9 0.5
2018-Jan-02 09:00N 46°36' W 087°24'0 0.0 290 / 61026.1 -13.0 0.4
2018-Jan-02 08:00N 46°36' W 087°24'0 0.0 300 / 101026.8 -12.6 0.4
2018-Jan-02 07:00N 46°36' W 087°24'0 0.0 270 / 51027.4 -12.5 0.4
2018-Jan-02 06:00N 46°36' W 087°24'0 0.0 250 / 81028.1 -12.5 0.4
2018-Jan-02 05:00N 46°36' W 087°24'0 0.0 300 / 81028.8 -11.2 0.4
2018-Jan-02 04:00N 46°36' W 087°24'0 0.0 310 / 91029.5 -12.0 0.4
2018-Jan-02 03:00N 46°36' W 087°24'0 0.0 260 / 31030.1 -12.3 0.4
2018-Jan-02 02:00N 46°36' W 087°24'0 0.0 280 / 31031.2 -12.0 0.4
2018-Jan-02 01:00N 46°36' W 087°24'0 0.0 240 / 31031.8 -12.3 0.5
2018-Jan-02 00:00N 46°36' W 087°24'0 0.0 210 / 21032.2 -12.5 0.6
2018-Jan-01 23:00N 46°36' W 087°24'0 0.0 240 / 51032.5 -12.4 0.5
2018-Jan-01 22:00N 46°36' W 087°24'0 0.0 300 / 61032.2 -10.9 0.5
2018-Jan-01 21:00N 46°36' W 087°24'0 0.0 280 / 21032.2 -10.0 0.5
2018-Jan-01 20:00N 46°36' W 087°24'0 0.0 300 / 111031.5 -10.6 0.6
2018-Jan-01 19:00N 46°36' W 087°24'0 0.0 300 / 61031.8 -10.5 0.5
2018-Jan-01 18:00N 46°36' W 087°24'0 0.0 300 / 61032.2 -11.2 0.4
2018-Jan-01 17:00N 46°36' W 087°24'0 0.0 290 / 81032.5 -12.4 0.4
2018-Jan-01 16:00N 46°36' W 087°24'0 0.0 310 / 211032.5 -14.1 0.5
2018-Jan-01 15:00N 46°36' W 087°24'0 0.0 300 / 131032.5 -14.9 0.4
2018-Jan-01 14:00N 46°36' W 087°24'0 0.0 290 / 101032.5 -15.5 0.5
2018-Jan-01 13:00N 46°36' W 087°24'0 0.0 280 / 151032.5 -15.9 0.5
2018-Jan-01 12:00N 46°36' W 087°24'0 0.0 290 / 91032.2 -16.3 0.5
2018-Jan-01 11:00N 46°36' W 087°24'0 0.0 320 / 101031.8 -16.4 0.6
2018-Jan-01 10:00N 46°36' W 087°24'0 0.0 280 / 101031.8 -16.3 0.5
2018-Jan-01 09:00N 46°36' W 087°24'0 0.0 300 / 151031.5 -16.1 0.5
2018-Jan-01 08:00N 46°36' W 087°24'0 0.0 260 / 101031.5 -16.8 0.5
2018-Jan-01 07:00N 46°36' W 087°24'0 0.0 250 / 91031.2 -16.8 0.6
2018-Jan-01 06:00N 46°36' W 087°24'0 0.0 260 / 101030.8 -17.0 0.6
2018-Jan-01 05:00N 46°36' W 087°24'0 0.0 260 / 91030.8 -17.4 0.7
2018-Jan-01 04:00N 46°36' W 087°24'0 0.0 260 / 51030.5 -17.5 0.8
2018-Jan-01 03:00N 46°36' W 087°24'0 0.0 260 / 91030.8 -17.6 0.9
2018-Jan-01 02:00N 46°36' W 087°24'0 0.0 260 / 111030.8 -18.1 0.9
2018-Jan-01 01:00N 46°36' W 087°24'0 0.0 220 / 81031.2 -17.7 1.0
2018-Jan-01 00:00N 46°36' W 087°24'0 0.0 250 / 61031.8 -16.6 1.0
2017-Dec-31 23:00N 46°36' W 087°24'0 0.0 250 / 51031.8 -16.0 1.0
2017-Dec-31 22:00N 46°36' W 087°24'0 0.0 240 / 61031.5 -15.0 1.0
2017-Dec-31 21:00N 46°36' W 087°24'0 0.0 270 / 61031.8 -14.0 0.9
2017-Dec-31 20:00N 46°36' W 087°24'0 0.0
2017-Dec-31 19:00N 46°36' W 087°24'0 0.0 310 / 91031.8 -14.0 0.9
2017-Dec-31 18:00N 46°36' W 087°24'0 0.0 280 / 31032.2 -13.3 0.8
2017-Dec-31 17:00N 46°36' W 087°24'0 0.0 270 / 131032.5 -13.6 0.6
2017-Dec-31 16:00N 46°36' W 087°24'   280 / 151032.5 -14.0 0.5
Track history (hours):
 
Tides and Currents Weather Stations Pressure Air Temp Water Temp Dewpoint Dewpoint Depression Visibility Wind Speed Wind Dir Waves Ship Positions

Str Lee A Tregurtha

Owner: THE INTERLAKE STEAMSHIP COMPANY, Middleburg Heights, OH. More information available from US FCC via Universal Licensing System and Coast Guard Vessel Documentation Center.

Last reported at 2018-Jan-10 16:00 UTC. Time now 2018-Feb-25 19:41 UTC.
Position N 46°42' W 092°06'.
Warning: this ship's position is 46 days out of date.

Length 252 m; draft 8.4 m.

Type: Cargo ship. MMSI: 366904950.

Wind from 210 at 12 knots

Barometer 1001.0 mb
Air temperature 2.3 ° C
Water temperature 0.5 ° C

Date/timePositionNaut miles runAvg speedWind from/ knotsBaromVisibWave heightAir tempDewpointWater temp
2018-Jan-10 16:00N 46°42' W 092°06'0 0.0 210 / 121001.0 2.3 0.5
2018-Jan-10 15:00N 46°42' W 092°06'2 7.7 200 / 91001.0 2.2 0.3
2018-Jan-10 14:42N 46°44' W 092°05'0 0.0
2018-Jan-10 14:30N 46°44' W 092°05'0 0.0
2018-Jan-10 14:00N 46°44' W 092°05'2144.5
2018-Jan-10 14:00N 46°42' W 092°06'2 4.7 200 / 111000.7 2.2 0.3
2018-Jan-10 13:30N 46°44' W 092°05'0 0.0
2018-Jan-10 13:00N 46°44' W 092°05'2143.4
2018-Jan-10 13:00N 46°42' W 092°06'2 4.9 210 / 101001.4 2.2 0.5
2018-Jan-10 12:30N 46°44' W 092°06'0 0.9
2018-Jan-10 12:00N 46°45' W 092°06'3169.5
2018-Jan-10 12:00N 46°42' W 092°06'3 6.8 200 / 61001.4 2.2 0.3
2018-Jan-10 11:30N 46°45' W 092°06'2 4.0
2018-Jan-10 11:00N 46°47' W 092°04'187.4
2018-Jan-10 11:00N 46°48' W 092°06'611.6 200 / 91001.4 1.9 0.2
2018-Jan-10 10:30N 46°49' W 091°58'816.3
2018-Jan-10 10:00N 46°54' W 091°48'3536.2 190 / 151002.4 2.9 1.3
2018-Jan-10 09:59N 46°51' W 091°50'510.8
2018-Jan-10 09:30N 46°53' W 091°43'510.3
2018-Jan-10 09:00N 46°55' W 091°36'161.4
2018-Jan-10 09:00N 46°54' W 091°36'1010.2 200 / 271004.4 3.4 2.4
2018-Jan-10 08:00N 47°00' W 091°24'1212.3 220 / 111005.4 3.8 2.3
2018-Jan-10 07:00N 47°00' W 091°06'1010.1 120 / 101006.4 2.1 1.6
2018-Jan-10 06:00N 47°06' W 090°54'1413.6 140 / 111008.5 1.0 0.6
2018-Jan-10 05:00N 47°12' W 090°36'8 8.2 170 / 181009.8 2.3 1.2
2018-Jan-10 04:00N 47°12' W 090°24'1212.2 140 / 161011.5 2.0 2.1
2018-Jan-10 03:00N 47°12' W 090°06'1010.1 160 / 171012.9 2.1 2.9
2018-Jan-10 02:00N 47°18' W 089°54'1212.2 140 / 141014.6 1.8 2.7
2018-Jan-10 01:00N 47°18' W 089°36'2110.6 140 / 181015.6 0.9 3.0
2018-Jan-09 23:00N 47°24' W 089°06'8 8.1 110 / 131017.910.8 -0.5 3.1
2018-Jan-09 22:00N 47°24' W 088°54'1413.6 130 / 141019.0 -1.3 2.9
2018-Jan-09 21:00N 47°30' W 088°36'1212.2 150 / 141020.0 -2.5 2.9
2018-Jan-09 20:00N 47°30' W 088°18'8 8.1 140 / 101020.3 -2.9 2.9
2018-Jan-09 19:00N 47°30' W 088°06'1212.2 140 / 101021.7 -3.7 2.8
2018-Jan-09 18:00N 47°30' W 087°48'8 8.1 190 / 141022.0 -4.4 1.9
2018-Jan-09 17:00N 47°30' W 087°36'1717.3 210 / 121023.4 -4.5 1.6
2018-Jan-09 16:00N 47°24' W 087°12'1413.6 200 / 31023.4 -4.2 3.6
2018-Jan-09 15:00N 47°18' W 086°54'7312.2 230 / 31023.7 -4.5 3.6
2018-Jan-09 09:00N 46°54' W 085°12'1010.2 330 / 261017.6 -3.2 1.1
2018-Jan-09 08:00N 46°48' W 085°00'7 7.3 340 / 211016.9 -3.2 0.1
2018-Jan-09 07:00N 46°42' W 084°54'4 4.1 290 / 221015.9 -3.0 0.2
2018-Jan-09 06:00N 46°42' W 084°48'6 6.0 310 / 251014.6 -2.8 0.3
2018-Jan-09 05:00N 46°36' W 084°48'4 4.1 300 / 291013.9 -2.7 0.2
2018-Jan-09 04:00N 46°36' W 084°42'7 7.3 300 / 261012.9 -2.8 0.1
2018-Jan-09 03:00N 46°30' W 084°36'8 8.3 300 / 291011.2 -3.1 0.1
2018-Jan-09 02:00N 46°30' W 084°24'0 0.0 300 / 231010.8 -3.0 0.1
2018-Jan-09 01:00N 46°30' W 084°24'4 4.1 300 / 171010.5 -3.1 0.1
2018-Jan-09 00:00N 46°30' W 084°18'0 0.0 300 / 211009.3 -2.4 0.1
2018-Jan-08 23:00N 46°30' W 084°18'6 6.0 260 / 121007.9 -1.5 0.1
2018-Jan-08 22:00N 46°24' W 084°18'4 4.1 260 / 101007.2 -1.3 0.1
2018-Jan-08 21:00N 46°24' W 084°12'6 6.0 250 / 171006.2 -1.1 0.1
2018-Jan-08 20:00N 46°18' W 084°12'4 4.1 240 / 161004.9 -1.4 0.1
2018-Jan-08 19:00N 46°18' W 084°06'0 0.0 250 / 141004.9 -1.3 0.1
2018-Jan-08 18:00N 46°18' W 084°06'6 6.0 240 / 91004.9 -1.7 0.1
2018-Jan-08 17:00N 46°12' W 084°06'0 0.0 240 / 161005.2 -2.2 0.1
2018-Jan-08 16:00N 46°12' W 084°06'0 0.0 230 / 131005.9 -2.2 0.4
2018-Jan-08 15:00N 46°12' W 084°06'0 0.0 230 / 121005.5 -2.6 0.2
2018-Jan-08 14:00N 46°12' W 084°06'7 7.3 240 / 161005.2 -3.3 0.1
2018-Jan-08 13:00N 46°06' W 084°00'0 0.0 250 / 141005.2 -3.7 0.1
2018-Jan-08 12:00N 46°06' W 084°00'1312.7 270 / 131004.9 -3.5 0.2
2018-Jan-08 11:00N 45°54' W 083°54'1010.3 270 / 221004.5 -2.5 1.1
2018-Jan-08 10:00N 45°48' W 083°42'2211.0 300 / 221004.5 -1.8 2.7
2018-Jan-08 08:00N 45°30' W 083°24'1312.7 180 / 131006.6 -1.6 3.0
2018-Jan-08 07:00N 45°18' W 083°18'7 7.3 190 / 121007.6 -2.0 1.0
2018-Jan-08 06:00N 45°12' W 083°12'1312.7 200 / 161008.3 -1.4 0.6
2018-Jan-08 05:00N 45°00' W 083°06'1212.0 210 / 161009.6 -1.0 1.7
2018-Jan-08 04:00N 44°48' W 083°06'1312.7 210 / 171010.3 -1.4 1.6
2018-Jan-08 03:00N 44°36' W 083°00'1212.0 210 / 211011.0 -2.0 0.5
2018-Jan-08 02:00N 44°24' W 083°00'7 7.4 220 / 291011.3 -1.8 1.3
2018-Jan-08 01:00N 44°18' W 082°54'1010.5 220 / 301012.0 -2.1 0.7
2018-Jan-08 00:00N 44°12' W 082°42'1312.8 210 / 251013.3 -2.6 1.2
2018-Jan-07 23:00N 44°00' W 082°36'1312.8 190 / 161014.7 -2.7 1.4
2018-Jan-07 22:00N 43°48' W 082°30'1212.0 190 / 181015.4 -5.0 1.2
2018-Jan-07 21:00N 43°36' W 082°30'6 6.0 190 / 181016.0 -5.8 0.7
2018-Jan-07 20:00N 43°30' W 082°30'1312.8 190 / 181017.4 -7.0 0.1
2018-Jan-07 19:00N 43°18' W 082°24'1212.0 200 / 221019.1 -8.1 0.1
2018-Jan-07 18:00N 43°06' W 082°24'6 6.0 190 / 261021.1 -8.7 0.1
2018-Jan-07 17:00N 43°00' W 082°24'7 7.4 190 / 241023.5 -9.5 0.1
2018-Jan-07 16:00N 42°54' W 082°30'1212.0 190 / 201025.9 -9.3 0.1
2018-Jan-07 15:00N 42°42' W 082°30'6 6.0 180 / 181027.6 -10.6 0.2
2018-Jan-07 14:00N 42°36' W 082°30'0 0.0 200 / 121028.9 -11.4 0.1
2018-Jan-07 13:00N 42°36' W 082°30'0 0.0 190 / 141028.9 -12.1 0.2
2018-Jan-07 12:00N 42°36' W 082°30'0 0.0 190 / 111030.3 -12.6 0.1
2018-Jan-07 11:00N 42°36' W 082°30'0 0.0 190 / 121030.9 -13.1 0.1
2018-Jan-07 10:00N 42°36' W 082°30'0 0.0 190 / 61030.9 -15.1 0.1
2018-Jan-07 09:00N 42°36' W 082°30'0 0.0 200 / 61031.6 -16.4 0.1
2018-Jan-07 08:00N 42°36' W 082°30'0 0.0 150 / 51032.0 -17.7 0.2
2018-Jan-07 07:00N 42°36' W 082°30'0 0.0 140 / 41032.3 -18.1 0.1
2018-Jan-07 06:00N 42°36' W 082°30'0 0.0 150 / 21033.3 -18.5 0.1
2018-Jan-07 05:00N 42°36' W 082°30'0 0.0 140 / 21033.7 -18.9 0.1
2018-Jan-07 04:00N 42°36' W 082°30'0 0.0 210 / 11034.3 -18.5 0.1
2018-Jan-07 03:00N 42°36' W 082°30'0 0.0 140 / 21034.7 -18.6 0.1
2018-Jan-07 02:00N 42°36' W 082°30'0 0.0 310 / 21034.7 -16.9 0.1
2018-Jan-07 01:00N 42°36' W 082°30'0 0.0 320 / 21035.0 -16.5 0.1
2018-Jan-07 00:00N 42°36' W 082°30'0 0.0 320 / 21035.0 -15.8 0.1
2018-Jan-06 23:00N 42°36' W 082°30'4 4.4 280 / 21035.0 -15.3 0.1
2018-Jan-06 22:00N 42°36' W 082°36'0 0.0 300 / 91034.8 -14.7 0.3
2018-Jan-06 21:00N 42°36' W 082°36'6 6.0 290 / 61034.5 -13.0 0.8
2018-Jan-06 20:00N 42°30' W 082°36'4 4.4 300 / 121033.8 -12.4 0.1
2018-Jan-06 19:00N 42°30' W 082°42'7 7.5 280 / 141033.8 -12.8 0.2
2018-Jan-06 18:00N 42°24' W 082°48'1110.7 320 / 181033.5 -13.6 0.3
2018-Jan-06 17:00N 42°18' W 083°00'4 4.4 330 / 111034.1 -14.3 0.2
2018-Jan-06 16:00N 42°18' W 083°06'0 0.0 340 / 71034.1 -13.2 0.2
2018-Jan-06 15:00N 42°18' W 083°06'0 0.0 310 / 91033.5 -15.1 0.1
2018-Jan-06 14:00N 42°18' W 083°06'0 0.0 280 / 71032.8 -16.1 1.3
2018-Jan-06 13:00N 42°18' W 083°06'4 4.4 270 / 41032.4 -16.5 7.8
2018-Jan-06 12:00N 42°18' W 083°12'0 0.0 290 / 61031.8 -16.9 10.4
2018-Jan-06 11:00N 42°18' W 083°12'0 0.0 300 / 61031.1 -16.5 10.3
2018-Jan-06 10:00N 42°18' W 083°12'0 0.0 320 / 31030.4 -16.6 10.4
2018-Jan-06 09:00N 42°18' W 083°12'0 0.0 300 / 71030.1 -16.3 10.5
2018-Jan-06 08:00N 42°18' W 083°12'0 0.0 290 / 81030.4 -16.4 10.6
2018-Jan-06 07:00N 42°18' W 083°12'0 0.0 280 / 71029.4 -16.1 10.5
2018-Jan-06 06:00N 42°18' W 083°12'0 0.0 280 / 31029.1 -15.7 10.5
2018-Jan-06 05:00N 42°18' W 083°12'0 0.0 200 / 21029.1 -15.7 10.6
2018-Jan-06 04:00N 42°18' W 083°12'0 0.0 270 / 61028.7 -15.7 10.8
2018-Jan-06 03:00N 42°18' W 083°12'0 0.0 290 / 61028.4 -16.0 10.7
2018-Jan-06 02:00N 42°18' W 083°12'0 0.0 290 / 41028.4 -15.6 10.4
2018-Jan-06 01:00N 42°18' W 083°12'0 0.0 230 / 41028.0 -15.1 10.4
2018-Jan-06 00:00N 42°18' W 083°12'0 0.0 320 / 61027.7 -15.2 10.7
2018-Jan-05 23:00N 42°18' W 083°12'0 0.0 240 / 21027.4 -15.1 10.5
2018-Jan-05 22:00N 42°18' W 083°12'0 0.0 310 / 41027.0 -14.9 10.5
2018-Jan-05 21:00N 42°18' W 083°12'0 0.0 310 / 51026.4 -14.0 10.4
2018-Jan-05 20:00N 42°18' W 083°12'0 0.0 290 / 41025.7 -14.2 10.8
2018-Jan-05 19:00N 42°18' W 083°12'0 0.0 320 / 101025.3 -14.6 10.8
2018-Jan-05 18:00N 42°18' W 083°12'0 0.0 290 / 131025.0 -14.7 10.8
2018-Jan-05 17:00N 42°18' W 083°12'0 0.0 300 / 111025.3 -15.1 10.8
2018-Jan-05 16:00N 42°18' W 083°12'0 0.0 320 / 111025.3 -15.9 11.0
2018-Jan-05 15:00N 42°18' W 083°12'0 0.0 290 / 121024.7 -16.4 10.8
2018-Jan-05 14:00N 42°18' W 083°12'0 0.0 310 / 31024.0 -17.8 10.5
2018-Jan-05 13:00N 42°18' W 083°12'0 0.0 300 / 71023.6 -18.6 10.1
2018-Jan-05 12:00N 42°18' W 083°12'0 0.0 290 / 131023.3 -18.8 10.1
2018-Jan-05 11:00N 42°18' W 083°12'0 0.0 310 / 61022.6 -18.6 10.2
2018-Jan-05 10:00N 42°18' W 083°12'0 0.0 300 / 111022.3 -18.4 8.7
2018-Jan-05 09:00N 42°18' W 083°12'0 0.0 300 / 71022.3 -18.1 8.3
2018-Jan-05 08:00N 42°18' W 083°12'0 0.0 330 / 91021.9 -17.9 8.5
2018-Jan-05 07:00N 42°18' W 083°12'0 0.0 310 / 121021.3 -17.8 8.8
2018-Jan-05 06:00N 42°18' W 083°12'0 0.0 290 / 121020.9 -17.4 8.8
2018-Jan-05 05:00N 42°18' W 083°12'0 0.0 300 / 141021.3 -17.0 8.3
2018-Jan-05 04:00N 42°18' W 083°12'0 0.0 320 / 81021.6 -16.5 8.0
2018-Jan-05 03:00N 42°18' W 083°12'4 4.4 320 / 71021.6 -16.1 8.2
2018-Jan-05 02:00N 42°18' W 083°06'0 0.0 310 / 91021.6 -15.3 6.8
2018-Jan-05 01:00N 42°18' W 083°06'4 4.4 330 / 121021.3 -15.0 1.1
2018-Jan-05 00:00N 42°18' W 083°00'1110.7 300 / 61020.9 -14.3 0.1
2018-Jan-04 23:00N 42°24' W 082°48'7 7.5 320 / 211019.9 -14.4 0.3
2018-Jan-04 22:00N 42°30' W 082°42'0 0.0 320 / 211019.9 -14.3 0.2
2018-Jan-04 21:00N 42°30' W 082°42'0 0.0 320 / 241019.2 -14.2 0.2
2018-Jan-04 20:00N 42°30' W 082°42'0 0.0 330 / 251018.9 -14.2 0.4
2018-Jan-04 19:00N 42°30' W 082°42'0 0.0 320 / 231018.9 -14.2 0.3
2018-Jan-04 18:00N 42°30' W 082°42'4 4.4 320 / 221018.9 -14.2 0.1
2018-Jan-04 17:00N 42°30' W 082°36'7 7.5 350 / 221018.9 -14.5 0.1
2018-Jan-04 16:00N 42°36' W 082°30'1212.0 290 / 171019.1 -14.7 0.1
2018-Jan-04 15:00N 42°48' W 082°30'6 6.0 300 / 181018.8 -14.9 0.1
2018-Jan-04 14:00N 42°54' W 082°30'7 7.4 330 / 161019.1 -14.9 0.1
2018-Jan-04 13:00N 43°00' W 082°24'1212.0 320 / 141018.8 -14.8 0.1
2018-Jan-04 12:00N 43°12' W 082°24'1212.0 310 / 301018.1 -12.8 0.1
2018-Jan-04 11:00N 43°24' W 082°24'1212.0 310 / 331017.4 -12.2 0.2
2018-Jan-04 10:00N 43°36' W 082°24'1212.0 320 / 271017.4 -10.9 0.8
2018-Jan-04 09:00N 43°48' W 082°24'1514.8 320 / 261017.4 -10.0 2.5
2018-Jan-04 08:00N 44°00' W 082°36'1312.8 320 / 261017.4 -9.6 1.6
2018-Jan-04 07:00N 44°12' W 082°42'4314.3 300 / 221016.7 -9.8 2.7
2018-Jan-04 04:00N 44°54' W 082°54'1312.7 330 / 251015.7 -9.8 1.8
2018-Jan-04 03:00N 45°06' W 083°00'1514.7 330 / 281015.7 -10.0 2.5
2018-Jan-04 02:00N 45°18' W 083°12'1014.6 330 / 271015.4 -9.9 2.9
2018-Jan-04 01:18N 45°25' W 083°22'413.5
2018-Jan-04 01:00N 45°29' W 083°25'2114.9
2018-Jan-04 01:00N 45°30' W 083°24'612.8 340 / 301014.7 -10.3 3.7
2018-Jan-04 00:31N 45°34' W 083°31'713.3
2018-Jan-04 00:00N 45°39' W 083°36'3213.1
2018-Jan-04 00:00N 45°36' W 083°36'2713.5 320 / 251014.310.8 -10.6 3.6
2018-Jan-03 22:00N 46°00' W 083°54'7 7.3 320 / 241012.7 -11.1 0.3
2018-Jan-03 21:00N 46°06' W 084°00'1010.3 320 / 231011.6 -10.5 0.2
2018-Jan-03 20:00N 46°12' W 084°12'6 6.0 320 / 211010.6 -10.1 0.1
2018-Jan-03 19:00N 46°18' W 084°12'7 7.3 300 / 161009.3 -9.6 0.1
2018-Jan-03 18:00N 46°24' W 084°18'6 6.0 280 / 161009.3 -8.3 0.1
2018-Jan-03 17:00N 46°30' W 084°18'4 4.1 010 / 41009.3 -8.3 0.2
2018-Jan-03 16:00N 46°30' W 084°24'0 0.0 150 / 21009.5 -10.1 0.1
2018-Jan-03 15:00N 46°30' W 084°24'0 0.0 180 / 21009.5 -10.7 0.2
2018-Jan-03 14:00N 46°30' W 084°24'4 4.1 180 / 31009.1 -11.0 0.1
2018-Jan-03 13:00N 46°30' W 084°30'4 4.1 160 / 31009.5 -10.9 0.1
2018-Jan-03 12:00N 46°30' W 084°36'1010.2 230 / 141009.1 -9.7 0.3
2018-Jan-03 11:00N 46°36' W 084°48'1312.7 240 / 241008.5 -8.9 1.4
2018-Jan-03 10:00N 46°48' W 084°54'1212.3 230 / 191008.5 -9.5 0.2
2018-Jan-03 09:00N 46°48' W 085°12'1212.3 220 / 231008.5 -8.7 1.6
2018-Jan-03 08:00N 46°48' W 085°30'1212.3 230 / 181008.8 -7.6 3.3
2018-Jan-03 07:00N 46°48' W 085°48'1212.3 220 / 221008.8 -7.5 3.0
2018-Jan-03 06:00N 46°48' W 086°06'1413.7 260 / 191009.1 -6.6 2.7
2018-Jan-03 05:00N 46°42' W 086°24'8 8.2 270 / 241009.8 -6.4 3.0
2018-Jan-03 04:00N 46°42' W 086°36'1413.7 230 / 221010.5 -7.6 3.4
2018-Jan-03 03:00N 46°36' W 086°54'1212.4 240 / 241011.2 -7.5 2.5
2018-Jan-03 02:00N 46°36' W 087°12'8 8.2 240 / 161011.9 -8.5 1.7
2018-Jan-03 01:00N 46°36' W 087°24'0 0.0 250 / 21012.2 -8.3 0.4
2018-Jan-03 00:00N 46°36' W 087°24'0 0.0 230 / 51012.2 -8.1 0.4
2018-Jan-02 23:00N 46°36' W 087°24'0 0.0 230 / 41012.5 -8.0 0.4
2018-Jan-02 22:00N 46°36' W 087°24'0 0.0 240 / 21012.9 -8.2 0.4
2018-Jan-02 21:00N 46°36' W 087°24'0 0.0 200 / 51013.9 -8.3 0.5
2018-Jan-02 20:00N 46°36' W 087°24'0 0.0 240 / 41013.9 -7.6 0.5
2018-Jan-02 19:00N 46°36' W 087°24'0 0.0 250 / 41015.9 -7.6 0.5
2018-Jan-02 18:00N 46°36' W 087°24'0 0.0 220 / 21017.6 -8.4 0.5
2018-Jan-02 17:00N 46°36' W 087°24'0 0.0 240 / 61018.6 -9.7 0.5
2018-Jan-02 16:00N 46°36' W 087°24'0 0.0 200 / 61020.3 -10.8 0.5
2018-Jan-02 15:00N 46°36' W 087°24'0 0.0 240 / 71021.3 -12.2 0.6
2018-Jan-02 14:00N 46°36' W 087°24'0 0.0 290 / 81021.7 -11.9 0.6
2018-Jan-02 13:00N 46°36' W 087°24'0 0.0 260 / 51022.0 -11.5 0.5
2018-Jan-02 12:00N 46°36' W 087°24'0 0.0 310 / 51023.4 -12.3 0.5
2018-Jan-02 11:00N 46°36' W 087°24'0 0.0 290 / 81024.4 -12.5 0.6
2018-Jan-02 10:00N 46°36' W 087°24'0 0.0 300 / 61025.4 -12.9 0.5
2018-Jan-02 09:00N 46°36' W 087°24'0 0.0 290 / 61026.1 -13.0 0.4
2018-Jan-02 08:00N 46°36' W 087°24'0 0.0 300 / 101026.8 -12.6 0.4
2018-Jan-02 07:00N 46°36' W 087°24'0 0.0 270 / 51027.4 -12.5 0.4
2018-Jan-02 06:00N 46°36' W 087°24'0 0.0 250 / 81028.1 -12.5 0.4
2018-Jan-02 05:00N 46°36' W 087°24'0 0.0 300 / 81028.8 -11.2 0.4
2018-Jan-02 04:00N 46°36' W 087°24'0 0.0 310 / 91029.5 -12.0 0.4
2018-Jan-02 03:00N 46°36' W 087°24'0 0.0 260 / 31030.1 -12.3 0.4
2018-Jan-02 02:00N 46°36' W 087°24'0 0.0 280 / 31031.2 -12.0 0.4
2018-Jan-02 01:00N 46°36' W 087°24'0 0.0 240 / 31031.8 -12.3 0.5
2018-Jan-02 00:00N 46°36' W 087°24'0 0.0 210 / 21032.2 -12.5 0.6
2018-Jan-01 23:00N 46°36' W 087°24'0 0.0 240 / 51032.5 -12.4 0.5
2018-Jan-01 22:00N 46°36' W 087°24'0 0.0 300 / 61032.2 -10.9 0.5
2018-Jan-01 21:00N 46°36' W 087°24'0 0.0 280 / 21032.2 -10.0 0.5
2018-Jan-01 20:00N 46°36' W 087°24'0 0.0 300 / 111031.5 -10.6 0.6
2018-Jan-01 19:00N 46°36' W 087°24'0 0.0 300 / 61031.8 -10.5 0.5
2018-Jan-01 18:00N 46°36' W 087°24'0 0.0 300 / 61032.2 -11.2 0.4
2018-Jan-01 17:00N 46°36' W 087°24'0 0.0 290 / 81032.5 -12.4 0.4
2018-Jan-01 16:00N 46°36' W 087°24'0 0.0 310 / 211032.5 -14.1 0.5
2018-Jan-01 15:00N 46°36' W 087°24'0 0.0 300 / 131032.5 -14.9 0.4
2018-Jan-01 14:00N 46°36' W 087°24'0 0.0 290 / 101032.5 -15.5 0.5
2018-Jan-01 13:00N 46°36' W 087°24'0 0.0 280 / 151032.5 -15.9 0.5
2018-Jan-01 12:00N 46°36' W 087°24'0 0.0 290 / 91032.2 -16.3 0.5
2018-Jan-01 11:00N 46°36' W 087°24'0 0.0 320 / 101031.8 -16.4 0.6
2018-Jan-01 10:00N 46°36' W 087°24'0 0.0 280 / 101031.8 -16.3 0.5
2018-Jan-01 09:00N 46°36' W 087°24'0 0.0 300 / 151031.5 -16.1 0.5
2018-Jan-01 08:00N 46°36' W 087°24'0 0.0 260 / 101031.5 -16.8 0.5
2018-Jan-01 07:00N 46°36' W 087°24'0 0.0 250 / 91031.2 -16.8 0.6
2018-Jan-01 06:00N 46°36' W 087°24'0 0.0 260 / 101030.8 -17.0 0.6
2018-Jan-01 05:00N 46°36' W 087°24'0 0.0 260 / 91030.8 -17.4 0.7
2018-Jan-01 04:00N 46°36' W 087°24'0 0.0 260 / 51030.5 -17.5 0.8
2018-Jan-01 03:00N 46°36' W 087°24'0 0.0 260 / 91030.8 -17.6 0.9
2018-Jan-01 02:00N 46°36' W 087°24'0 0.0 260 / 111030.8 -18.1 0.9
2018-Jan-01 01:00N 46°36' W 087°24'0 0.0 220 / 81031.2 -17.7 1.0
2018-Jan-01 00:00N 46°36' W 087°24'0 0.0 250 / 61031.8 -16.6 1.0
2017-Dec-31 23:00N 46°36' W 087°24'0 0.0 250 / 51031.8 -16.0 1.0
2017-Dec-31 22:00N 46°36' W 087°24'0 0.0 240 / 61031.5 -15.0 1.0
2017-Dec-31 21:00N 46°36' W 087°24'0 0.0 270 / 61031.8 -14.0 0.9
2017-Dec-31 20:00N 46°36' W 087°24'0 0.0
2017-Dec-31 19:00N 46°36' W 087°24'0 0.0 310 / 91031.8 -14.0 0.9
2017-Dec-31 18:00N 46°36' W 087°24'0 0.0 280 / 31032.2 -13.3 0.8
2017-Dec-31 17:00N 46°36' W 087°24'0 0.0 270 / 131032.5 -13.6 0.6
2017-Dec-31 16:00N 46°36' W 087°24'   280 / 151032.5 -14.0 0.5

Dump ship's entire track history